createdAt,value
2022-12-13T00:01:47.590Z,84.33
2022-12-13T00:04:15.812Z,84.52
2022-12-13T00:06:44.447Z,84.44
2022-12-13T00:09:14.257Z,84.46
2022-12-13T00:11:42.048Z,84.45
2022-12-13T00:14:09.824Z,84.30
2022-12-13T00:16:38.932Z,84.54
2022-12-13T00:19:06.911Z,84.32
2022-12-13T00:21:35.477Z,84.46
2022-12-13T00:24:03.783Z,84.19
2022-12-13T00:26:33.268Z,84.25
2022-12-13T00:29:01.711Z,84.35
2022-12-13T00:34:21.248Z,84.21
2022-12-13T00:36:49.733Z,84.33
2022-12-13T00:39:19.202Z,84.24
2022-12-13T00:41:48.224Z,84.56
2022-12-13T00:44:16.042Z,84.38
2022-12-13T00:46:43.834Z,84.29
2022-12-13T00:49:13.318Z,84.14
2022-12-13T00:51:42.693Z,84.41
2022-12-13T00:54:15.131Z,84.16
2022-12-13T00:56:43.129Z,84.27
2022-12-13T00:59:14.873Z,84.14
2022-12-13T01:01:42.785Z,84.26
2022-12-13T01:04:12.040Z,84.02
2022-12-13T01:06:42.742Z,84.17
2022-12-13T01:09:17.164Z,84.24
2022-12-13T01:11:45.904Z,84.20
2022-12-13T01:14:13.719Z,84.29
2022-12-13T01:16:41.698Z,83.98
2022-12-13T01:19:10.956Z,84.08
2022-12-13T01:21:39.043Z,84.22
2022-12-13T01:24:09.146Z,84.28
2022-12-13T01:26:36.949Z,84.15
2022-12-13T01:29:06.131Z,84.12
2022-12-13T01:31:34.093Z,84.26
2022-12-13T01:34:10.654Z,84.11
2022-12-13T01:36:39.824Z,84.10
2022-12-13T01:39:14.808Z,84.23
2022-12-13T01:41:44.633Z,84.16
2022-12-13T01:44:45.507Z,84.05
2022-12-13T01:47:15.482Z,84.40
2022-12-13T01:49:43.505Z,84.06
2022-12-13T01:52:14.860Z,84.12
2022-12-13T01:54:50.456Z,84.06
2022-12-13T01:57:21.069Z,83.74
2022-12-13T01:59:51.366Z,83.87
2022-12-13T02:02:21.071Z,84.07
2022-12-13T02:04:55.815Z,83.84
2022-12-13T02:07:31.560Z,84.07
2022-12-13T02:10:05.155Z,83.73
2022-12-13T02:12:35.766Z,84.22
2022-12-13T02:15:07.885Z,83.88
2022-12-13T02:17:48.743Z,84.00
2022-12-13T02:20:53.206Z,83.85
2022-12-13T02:23:39.643Z,84.07
2022-12-13T02:26:23.660Z,84.35
2022-12-13T02:29:07.272Z,83.80
2022-12-13T02:31:46.358Z,84.03
2022-12-13T02:34:22.739Z,83.94
2022-12-13T02:37:00.448Z,83.75
2022-12-13T02:39:33.985Z,83.79
2022-12-13T02:42:05.883Z,84.04
2022-12-13T02:44:38.547Z,83.93
2022-12-13T02:47:22.101Z,83.87
2022-12-13T02:49:53.806Z,83.95
2022-12-13T02:52:26.806Z,83.93
2022-12-13T02:54:55.782Z,83.96
2022-12-13T02:57:32.156Z,84.15
2022-12-13T03:00:03.204Z,83.99
2022-12-13T03:02:55.296Z,84.07
2022-12-13T03:06:04.271Z,83.76
2022-12-13T03:08:40.664Z,83.82
2022-12-13T03:11:12.304Z,84.00
2022-12-13T03:13:49.338Z,83.66
2022-12-13T03:16:32.521Z,83.71
2022-12-13T03:19:04.936Z,84.08
2022-12-13T03:21:45.557Z,83.91
2022-12-13T03:24:18.076Z,84.02
2022-12-13T03:26:46.511Z,83.95
2022-12-13T03:29:14.515Z,83.69
2022-12-13T03:31:52.718Z,83.93
2022-12-13T03:34:22.527Z,83.91
2022-12-13T03:36:50.976Z,83.89
2022-12-13T03:39:21.318Z,84.03
2022-12-13T03:41:50.485Z,83.95
2022-12-13T03:44:18.840Z,83.80
2022-12-13T03:46:46.688Z,83.72
2022-12-13T03:49:17.403Z,83.84
2022-12-13T03:51:46.963Z,83.71
2022-12-13T03:54:14.914Z,83.94
2022-12-13T03:56:42.989Z,83.83
2022-12-13T03:59:10.795Z,83.56
2022-12-13T04:01:39.142Z,83.99
2022-12-13T04:04:06.976Z,83.37
2022-12-13T04:06:35.387Z,83.76
2022-12-13T04:09:05.399Z,83.60
2022-12-13T04:11:50.696Z,83.48
2022-12-13T04:14:22.661Z,83.56
2022-12-13T04:16:51.496Z,83.51
2022-12-13T04:19:23.239Z,83.93
2022-12-13T04:21:52.331Z,83.82
2022-12-13T04:24:21.876Z,83.84
2022-12-13T04:27:00.765Z,83.73
2022-12-13T04:29:34.119Z,83.82
2022-12-13T04:32:05.150Z,83.92
2022-12-13T04:34:52.898Z,83.81
2022-12-13T04:37:29.108Z,83.77
2022-12-13T04:40:00.904Z,83.94
2022-12-13T04:42:28.997Z,83.49
2022-12-13T04:44:56.734Z,83.78
2022-12-13T04:47:24.528Z,83.78
2022-12-13T04:49:52.462Z,83.41
2022-12-13T04:52:24.058Z,83.75
2022-12-13T04:54:55.961Z,83.81
2022-12-13T04:57:25.484Z,83.47
2022-12-13T04:59:54.078Z,83.84
2022-12-13T05:02:24.352Z,83.35
2022-12-13T05:04:53.544Z,83.92
2022-12-13T05:07:22.776Z,83.44
2022-12-13T05:09:50.576Z,83.48
2022-12-13T05:12:22.462Z,83.58
2022-12-13T05:14:54.042Z,83.77
2022-12-13T05:17:22.464Z,83.41
2022-12-13T05:19:50.398Z,83.64
2022-12-13T05:22:20.770Z,83.50
2022-12-13T05:24:49.545Z,83.39
2022-12-13T05:27:24.527Z,83.46
2022-12-13T05:30:05.067Z,83.43
2022-12-13T05:32:43.448Z,83.18
2022-12-13T05:35:14.450Z,83.66
2022-12-13T05:37:54.842Z,83.70
2022-12-13T05:40:23.927Z,83.57
2022-12-13T05:42:51.689Z,83.66
2022-12-13T05:45:31.091Z,83.79
2022-12-13T05:47:59.069Z,83.69
2022-12-13T05:50:28.480Z,83.25
2022-12-13T05:52:56.338Z,83.62
2022-12-13T05:55:24.243Z,83.67
2022-12-13T05:57:52.000Z,83.69
2022-12-13T06:00:28.555Z,83.65
2022-12-13T06:03:01.599Z,83.60
2022-12-13T06:05:30.288Z,83.79
2022-12-13T06:07:58.740Z,83.61
2022-12-13T06:10:34.591Z,83.58
2022-12-13T06:13:20.946Z,83.73
2022-12-13T06:15:51.662Z,83.67
2022-12-13T06:18:23.099Z,83.48
2022-12-13T06:20:58.538Z,83.25
2022-12-13T06:23:26.817Z,83.48
2022-12-13T06:25:54.914Z,83.19
2022-12-13T06:28:22.635Z,83.62
2022-12-13T06:30:52.527Z,83.80
2022-12-13T06:33:23.480Z,83.29
2022-12-13T06:35:52.616Z,83.91
2022-12-13T06:38:31.097Z,83.39
2022-12-13T06:41:09.210Z,83.25
2022-12-13T06:43:38.924Z,83.68
2022-12-13T06:46:07.027Z,83.34
2022-12-13T06:48:40.557Z,83.90
2022-12-13T06:51:09.819Z,83.97
2022-12-13T06:53:39.017Z,83.62
2022-12-13T06:56:08.575Z,83.73
2022-12-13T06:58:36.968Z,83.41
2022-12-13T07:01:06.769Z,83.63
2022-12-13T07:03:46.827Z,83.85
2022-12-13T07:06:18.222Z,83.46
2022-12-13T07:08:53.512Z,83.69
2022-12-13T07:11:26.889Z,83.21
2022-12-13T07:13:55.543Z,83.77
2022-12-13T07:16:25.959Z,83.97
2022-12-13T07:19:01.157Z,83.66
2022-12-13T07:21:31.253Z,83.50
2022-12-13T07:24:01.293Z,83.80
2022-12-13T07:26:29.040Z,83.24
2022-12-13T07:28:57.449Z,83.20
2022-12-13T07:31:26.733Z,83.77
2022-12-13T07:33:56.241Z,83.76
2022-12-13T07:36:25.152Z,83.46
2022-12-13T07:38:55.256Z,83.82
2022-12-13T07:41:23.522Z,83.21
2022-12-13T07:43:55.845Z,83.79
2022-12-13T07:46:33.338Z,83.68
2022-12-13T07:49:04.858Z,83.87
2022-12-13T07:51:34.489Z,83.68
2022-12-13T07:54:06.931Z,83.90
2022-12-13T07:56:35.718Z,83.25
2022-12-13T07:59:03.829Z,83.31
2022-12-13T08:01:34.566Z,83.47
2022-12-13T08:04:05.153Z,83.13
2022-12-13T08:06:36.276Z,83.44
2022-12-13T08:09:06.327Z,83.72
2022-12-13T08:11:35.850Z,83.70
2022-12-13T08:14:03.919Z,83.55
2022-12-13T08:16:32.346Z,83.38
2022-12-13T08:19:04.392Z,83.61
2022-12-13T08:21:56.640Z,83.60
2022-12-13T08:24:28.996Z,83.17
2022-12-13T08:27:03.622Z,83.59
2022-12-13T08:29:34.604Z,83.28
2022-12-13T08:32:04.564Z,83.76
2022-12-13T08:34:32.705Z,83.50
2022-12-13T08:37:03.916Z,83.67
2022-12-13T08:39:34.014Z,83.14
2022-12-13T08:42:14.761Z,83.73
2022-12-13T08:44:44.155Z,83.28
2022-12-13T08:47:11.977Z,83.48
2022-12-13T08:49:41.158Z,83.84
2022-12-13T08:52:10.554Z,83.16
2022-12-13T08:54:38.254Z,83.28
2022-12-13T08:57:06.083Z,83.30
2022-12-13T08:59:34.088Z,83.36
2022-12-13T09:02:05.155Z,83.32
2022-12-13T09:04:33.739Z,83.48
2022-12-13T09:07:02.089Z,83.17
2022-12-13T09:09:32.228Z,83.36
2022-12-13T09:12:01.685Z,83.26
2022-12-13T09:14:45.353Z,83.35
2022-12-13T09:17:24.041Z,83.24
2022-12-13T09:19:58.339Z,83.52
2022-12-13T09:22:33.959Z,83.01
2022-12-13T09:25:04.208Z,83.58
2022-12-13T09:27:39.526Z,83.63
2022-12-13T09:30:12.224Z,83.08
2022-12-13T09:32:41.989Z,83.52
2022-12-13T09:35:10.525Z,83.40
2022-12-13T09:37:45.595Z,83.12
2022-12-13T09:40:25.731Z,83.14
2022-12-13T09:43:12.293Z,83.13
2022-12-13T09:45:46.755Z,83.43
2022-12-13T09:48:22.439Z,83.13
2022-12-13T09:51:16.611Z,83.24
2022-12-13T09:53:41.895Z,83.09
2022-12-13T09:56:13.648Z,83.56
2022-12-13T09:58:43.470Z,83.55
2022-12-13T10:01:13.455Z,83.54
2022-12-13T10:03:54.101Z,83.24
2022-12-13T10:06:24.472Z,83.47
2022-12-13T10:08:57.695Z,83.49
2022-12-13T10:11:32.037Z,83.53
2022-12-13T10:14:05.397Z,83.19
2022-12-13T10:16:43.757Z,83.49
2022-12-13T10:19:29.567Z,83.43
2022-12-13T10:22:01.055Z,83.39
2022-12-13T10:24:48.485Z,83.38
2022-12-13T10:27:19.918Z,83.14
2022-12-13T10:30:00.104Z,82.77
2022-12-13T10:32:28.452Z,83.36
2022-12-13T10:34:56.459Z,83.27
2022-12-13T10:37:31.944Z,83.16
2022-12-13T10:40:02.487Z,83.48
2022-12-13T10:42:34.030Z,83.27
2022-12-13T10:45:23.603Z,83.07
2022-12-13T10:47:52.336Z,82.96
2022-12-13T10:50:27.730Z,83.29
2022-12-13T10:52:57.588Z,83.16
2022-12-13T10:55:29.756Z,83.04
2022-12-13T10:58:02.127Z,83.16
2022-12-13T11:00:37.958Z,83.12
2022-12-13T11:03:07.017Z,83.12
2022-12-13T11:05:37.771Z,83.18
2022-12-13T11:08:17.529Z,83.26
2022-12-13T11:10:45.768Z,83.26
2022-12-13T11:13:38.893Z,83.37
2022-12-13T11:16:22.422Z,83.34
2022-12-13T11:18:53.662Z,82.96
2022-12-13T11:21:26.497Z,83.11
2022-12-13T11:23:55.789Z,83.58
2022-12-13T11:26:26.731Z,83.17
2022-12-13T11:29:14.539Z,82.88
2022-12-13T11:31:52.038Z,83.21
2022-12-13T11:34:31.057Z,83.05
2022-12-13T11:37:10.317Z,83.29
2022-12-13T11:39:43.100Z,83.06
2022-12-13T11:42:20.659Z,83.24
2022-12-13T11:45:01.312Z,83.24
2022-12-13T11:47:39.770Z,83.33
2022-12-13T11:50:32.973Z,83.38
2022-12-13T11:53:26.580Z,83.29
2022-12-13T11:56:00.848Z,83.13
2022-12-13T12:01:31.214Z,82.75
2022-12-13T12:04:05.643Z,82.88
2022-12-13T12:06:40.613Z,82.86
2022-12-13T12:09:16.262Z,82.80
2022-12-13T12:11:49.828Z,83.16
2022-12-13T12:14:24.334Z,82.79
2022-12-13T12:16:55.311Z,82.89
2022-12-13T12:19:26.279Z,82.69
2022-12-13T12:22:15.879Z,83.52
2022-12-13T12:24:58.440Z,82.93
2022-12-13T12:27:35.432Z,83.08
2022-12-13T12:30:11.208Z,82.25
2022-12-13T12:32:48.901Z,82.81
2022-12-13T12:35:27.856Z,82.59
2022-12-13T12:38:09.619Z,82.50
2022-12-13T12:41:15.781Z,82.95
2022-12-13T12:43:42.087Z,82.55
2022-12-13T12:46:27.925Z,82.55
2022-12-13T12:49:25.770Z,82.99
2022-12-13T12:52:03.079Z,82.68
2022-12-13T12:54:45.002Z,82.65
2022-12-13T12:57:23.101Z,82.97
2022-12-13T13:00:03.842Z,82.56
2022-12-13T13:02:38.767Z,82.92
2022-12-13T13:05:16.446Z,82.64
2022-12-13T13:07:51.358Z,82.80
2022-12-13T13:10:25.955Z,82.41
2022-12-13T13:13:12.433Z,83.01
2022-12-13T13:15:58.062Z,83.11
2022-12-13T13:18:47.814Z,82.70
2022-12-13T13:21:43.912Z,82.72
2022-12-13T13:24:17.291Z,82.02
2022-12-13T13:26:49.073Z,82.43
2022-12-13T13:29:26.736Z,82.43
2022-12-13T13:32:01.403Z,82.34
2022-12-13T13:34:31.532Z,82.45
2022-12-13T13:37:01.882Z,82.16
2022-12-13T13:39:55.799Z,82.29
2022-12-13T13:42:26.169Z,82.77
2022-12-13T13:44:57.345Z,82.14
2022-12-13T13:47:43.024Z,82.42
2022-12-13T13:50:58.703Z,82.46
2022-12-13T13:53:57.559Z,82.07
2022-12-13T13:56:44.882Z,82.50
2022-12-13T13:59:47.625Z,82.32
2022-12-13T14:02:57.050Z,82.40
2022-12-13T14:05:58.099Z,82.38
2022-12-13T14:08:42.014Z,82.63
2022-12-13T14:11:50.668Z,82.23
2022-12-13T14:15:01.434Z,82.26
2022-12-13T14:18:07.770Z,81.88
2022-12-13T14:21:00.406Z,81.85
2022-12-13T14:23:44.401Z,82.30
2022-12-13T14:26:26.509Z,82.09
2022-12-13T14:28:57.077Z,82.06
2022-12-13T14:31:27.496Z,82.18
2022-12-13T14:33:59.194Z,82.29
2022-12-13T14:36:29.814Z,81.90
2022-12-13T14:39:03.384Z,82.48
2022-12-13T14:41:31.288Z,81.78
2022-12-13T14:44:17.372Z,81.79
2022-12-13T14:46:53.252Z,81.77
2022-12-13T14:49:23.099Z,81.97
2022-12-13T14:52:00.306Z,82.17
2022-12-13T14:54:33.486Z,82.10
2022-12-13T14:57:04.581Z,82.24
2022-12-13T14:59:33.645Z,82.26
2022-12-13T15:02:03.777Z,82.00
2022-12-13T15:04:34.220Z,82.13
2022-12-13T15:07:07.647Z,82.19
2022-12-13T15:09:40.872Z,82.03
2022-12-13T15:12:23.761Z,82.09
2022-12-13T15:14:59.731Z,81.94
2022-12-13T15:17:30.816Z,81.74
2022-12-13T15:20:01.186Z,81.88
2022-12-13T15:22:30.058Z,82.09
2022-12-13T15:24:59.998Z,82.02
2022-12-13T15:27:28.391Z,82.02
2022-12-13T15:29:56.982Z,81.83
2022-12-13T15:32:25.176Z,81.93
2022-12-13T15:34:53.376Z,81.51
2022-12-13T15:37:29.790Z,81.82
2022-12-13T15:40:02.643Z,81.68
2022-12-13T15:42:33.766Z,81.68
2022-12-13T15:45:06.177Z,81.75
2022-12-13T15:47:34.634Z,81.81
2022-12-13T15:50:06.099Z,81.91
2022-12-13T15:52:37.663Z,81.77
2022-12-13T15:55:33.304Z,82.13
2022-12-13T15:58:01.999Z,82.15
2022-12-13T16:00:32.752Z,81.53
2022-12-13T16:03:12.306Z,81.94
2022-12-13T16:05:47.378Z,81.79
2022-12-13T16:08:26.334Z,81.67
2022-12-13T16:10:58.621Z,81.87
2022-12-13T16:13:29.011Z,81.63
2022-12-13T16:16:09.199Z,81.53
2022-12-13T16:18:45.672Z,81.58
2022-12-13T16:21:15.231Z,81.92
2022-12-13T16:23:48.622Z,81.80
2022-12-13T16:26:23.640Z,81.77
2022-12-13T16:28:51.666Z,81.68
2022-12-13T16:31:24.175Z,81.73
2022-12-13T16:33:52.574Z,82.10
2022-12-13T16:36:21.943Z,82.03
2022-12-13T16:38:49.968Z,82.03
2022-12-13T16:41:20.158Z,81.74
2022-12-13T16:43:58.106Z,81.90
2022-12-13T16:47:14.280Z,81.27
2022-12-13T16:49:30.051Z,81.86
2022-12-13T16:51:58.590Z,81.55
2022-12-13T16:54:27.372Z,81.97
2022-12-13T16:56:57.104Z,81.35
2022-12-13T16:59:27.017Z,81.43
2022-12-13T17:01:55.893Z,81.78
2022-12-13T17:04:25.691Z,81.73
2022-12-13T17:06:55.090Z,81.80
2022-12-13T17:09:25.325Z,81.57
2022-12-13T17:11:53.843Z,81.44
2022-12-13T17:14:25.992Z,81.51
2022-12-13T17:16:55.014Z,81.45
2022-12-13T17:19:22.962Z,81.51
2022-12-13T17:21:50.773Z,81.37
2022-12-13T17:24:19.712Z,81.54
2022-12-13T17:26:54.676Z,81.47
2022-12-13T17:29:25.899Z,81.25
2022-12-13T17:31:54.267Z,81.47
2022-12-13T17:34:22.521Z,81.41
2022-12-13T17:36:50.861Z,81.50
2022-12-13T17:39:19.012Z,81.49
2022-12-13T17:41:54.624Z,81.39
2022-12-13T17:44:26.004Z,81.44
2022-12-13T17:46:55.155Z,81.42
2022-12-13T17:49:23.794Z,81.48
2022-12-13T17:51:53.738Z,81.21
2022-12-13T17:54:22.005Z,81.24
2022-12-13T17:56:50.995Z,81.37
2022-12-13T17:59:19.389Z,81.73
2022-12-13T18:01:49.623Z,81.25
2022-12-13T18:04:20.233Z,81.29
2022-12-13T18:06:48.040Z,81.68
2022-12-13T18:09:16.553Z,81.29
2022-12-13T18:11:44.595Z,81.41
2022-12-13T18:14:12.411Z,81.28
2022-12-13T18:16:40.885Z,81.66
2022-12-13T18:19:13.109Z,81.41
2022-12-13T18:21:43.425Z,81.43
2022-12-13T18:24:11.559Z,81.46
2022-12-13T18:26:39.310Z,81.23
2022-12-13T18:29:07.132Z,81.55
2022-12-13T18:31:35.333Z,81.32
2022-12-13T18:34:03.236Z,81.37
2022-12-13T18:36:32.371Z,81.49
2022-12-13T18:39:01.929Z,81.25
2022-12-13T18:41:32.265Z,81.37
2022-12-13T18:44:01.796Z,81.21
2022-12-13T18:46:30.834Z,81.28
2022-12-13T18:48:59.427Z,81.24
2022-12-13T18:51:28.314Z,81.33
2022-12-13T18:53:57.524Z,81.31
2022-12-13T18:56:25.986Z,81.49
2022-12-13T18:58:54.589Z,81.42
2022-12-13T19:01:26.808Z,81.26
2022-12-13T19:03:55.156Z,81.21
2022-12-13T19:06:26.244Z,80.86
2022-12-13T19:08:58.764Z,81.30
2022-12-13T19:11:28.558Z,81.35
2022-12-13T19:13:56.849Z,81.20
2022-12-13T19:16:26.329Z,81.27
2022-12-13T19:18:54.811Z,81.40
2022-12-13T19:21:23.242Z,81.36
2022-12-13T19:23:56.988Z,80.80
2022-12-13T19:26:28.348Z,81.20
2022-12-13T19:28:57.500Z,81.14
2022-12-13T19:31:30.956Z,81.27
2022-12-13T19:34:01.728Z,80.84
2022-12-13T19:36:30.044Z,81.01
2022-12-13T19:38:57.901Z,81.20
2022-12-13T19:41:27.557Z,81.28
2022-12-13T19:43:55.828Z,81.28
2022-12-13T19:46:27.078Z,81.35
2022-12-13T19:48:54.908Z,81.22
2022-12-13T19:51:22.922Z,81.01
2022-12-13T19:53:51.158Z,81.68
2022-12-13T19:56:20.935Z,81.05
2022-12-13T19:58:57.994Z,81.19
2022-12-13T20:01:25.928Z,81.25
2022-12-13T20:03:54.570Z,81.39
2022-12-13T20:06:25.123Z,81.45
2022-12-13T20:08:53.354Z,81.05
2022-12-13T20:11:23.425Z,81.17
2022-12-13T20:13:56.148Z,81.03
2022-12-13T20:16:26.833Z,81.43
2022-12-13T20:18:58.135Z,80.99
2022-12-13T20:21:27.758Z,81.30
2022-12-13T20:23:56.565Z,81.14
2022-12-13T20:26:27.701Z,81.25
2022-12-13T20:28:57.199Z,81.28
2022-12-13T20:31:26.303Z,81.19
2022-12-13T20:33:57.263Z,81.24
2022-12-13T20:36:27.709Z,81.04
2022-12-13T20:38:57.053Z,80.97
2022-12-13T20:41:27.614Z,81.04
2022-12-13T20:43:58.894Z,81.33
2022-12-13T20:46:29.359Z,81.06
2022-12-13T20:48:59.282Z,81.10
2022-12-13T20:51:29.208Z,81.12
2022-12-13T20:53:57.768Z,81.21
2022-12-13T20:56:27.282Z,81.22
2022-12-13T20:58:57.061Z,81.04
2022-12-13T21:01:26.721Z,80.97
2022-12-13T21:03:58.486Z,81.18
2022-12-13T21:06:26.228Z,81.17
2022-12-13T21:08:54.772Z,81.21
2022-12-13T21:11:27.598Z,80.94
2022-12-13T21:14:09.932Z,80.94
2022-12-13T21:16:47.337Z,80.71
2022-12-13T21:19:21.558Z,81.40
2022-12-13T21:21:50.461Z,80.93
2022-12-13T21:24:22.268Z,80.47
2022-12-13T21:26:51.187Z,80.58
2022-12-13T21:29:21.384Z,81.13
2022-12-13T21:31:50.904Z,80.78
2022-12-13T21:34:19.771Z,80.99
2022-12-13T21:36:49.419Z,81.03
2022-12-13T21:39:19.574Z,80.70
2022-12-13T21:41:47.980Z,80.55
2022-12-13T21:44:20.300Z,80.98
2022-12-13T21:49:37.895Z,81.01
2022-12-13T21:52:06.280Z,81.02
2022-12-13T21:54:34.181Z,80.51
2022-12-13T21:57:20.744Z,80.69
2022-12-13T21:59:49.370Z,80.97
2022-12-13T22:02:22.437Z,81.16
2022-12-13T22:04:51.889Z,81.05
2022-12-13T22:07:21.465Z,80.94
2022-12-13T22:09:50.189Z,80.79
2022-12-13T22:12:21.660Z,80.84
2022-12-13T22:14:50.388Z,80.33
2022-12-13T22:17:24.888Z,80.46
2022-12-13T22:19:55.273Z,80.59
2022-12-13T22:22:25.628Z,80.71
2022-12-13T22:24:54.167Z,81.14
2022-12-13T22:27:23.836Z,80.91
2022-12-13T22:29:52.455Z,80.60
2022-12-13T22:32:22.490Z,80.65
2022-12-13T22:34:50.555Z,81.19
2022-12-13T22:37:18.417Z,80.98
2022-12-13T22:39:46.343Z,80.98
2022-12-13T22:42:14.571Z,81.25
2022-12-13T22:44:43.622Z,80.82
2022-12-13T22:47:11.461Z,81.04
2022-12-13T22:49:41.047Z,81.01
2022-12-13T22:52:09.274Z,80.88
2022-12-13T22:54:37.192Z,81.09
2022-12-13T22:57:05.379Z,81.17
2022-12-13T22:59:34.991Z,81.07
2022-12-13T23:02:03.906Z,81.13
2022-12-13T23:04:32.839Z,80.83
2022-12-13T23:07:02.316Z,81.22
2022-12-13T23:09:30.482Z,81.05
2022-12-13T23:12:15.840Z,81.36
2022-12-13T23:14:44.550Z,81.46
2022-12-13T23:17:12.475Z,81.16
2022-12-13T23:19:50.865Z,81.47
2022-12-13T23:22:23.018Z,81.37
2022-12-13T23:24:52.682Z,81.57
2022-12-13T23:27:25.716Z,81.30
2022-12-13T23:29:54.592Z,81.25
2022-12-13T23:32:22.499Z,81.57
2022-12-13T23:34:50.293Z,81.60
2022-12-13T23:37:19.737Z,81.30
2022-12-13T23:39:48.957Z,81.76
2022-12-13T23:42:16.795Z,81.16
2022-12-13T23:44:45.063Z,81.46
2022-12-13T23:47:14.402Z,81.46
2022-12-13T23:49:42.542Z,81.04
2022-12-13T23:52:10.451Z,81.13
2022-12-13T23:54:38.591Z,81.38
2022-12-13T23:57:07.727Z,81.45
2022-12-13T23:59:35.935Z,81.51
